Time;durP1;ratioP1;P1;durP2;ratioP2;P2;SDS_P1;SDS_P2;PMS_P1;PMS_P2;Temp;Humidity;BMP_temperature;BMP_pressure;BME280_temperature;BME280_humidity;BME280_pressure;Samples;Min_cycle;Max_cycle;Signal;HPM_P1;HPM_P2
2023/11/04 00:00:21;;;;;;;21.20;19.53;;;;;;;;;;5139842;27;20413;-80
2023/11/04 00:02:48;;;;;;;21.63;19.87;;;;;;;;;;5139823;27;20848;-80
2023/11/04 00:05:16;;;;;;;21.57;20.17;;;;;;;;;;5138903;27;20418;-80
2023/11/04 00:07:43;;;;;;;20.30;19.00;;;;;;;;;;5139991;27;20905;-82
2023/11/04 00:10:11;;;;;;;20.83;19.53;;;;;;;;;;5140370;27;20458;-80
2023/11/04 00:12:38;;;;;;;20.93;19.47;;;;;;;;;;5140030;27;20443;-81
2023/11/04 00:15:06;;;;;;;21.47;19.83;;;;;;;;;;5139740;27;20482;-80
2023/11/04 00:17:33;;;;;;;22.40;20.70;;;;;;;;;;5127328;27;20474;-82
2023/11/04 00:20:00;;;;;;;20.90;19.23;;;;;;;;;;5135254;27;20901;-80
2023/11/04 00:22:29;;;;;;;21.17;19.63;;;;;;;;;;5123665;27;20475;-82
2023/11/04 00:24:56;;;;;;;22.07;20.37;;;;;;;;;;5119647;28;20414;-81
2023/11/04 00:27:23;;;;;;;21.50;19.97;;;;;;;;;;5130953;27;20479;-82
2023/11/04 00:29:50;;;;;;;21.07;19.73;;;;;;;;;;5122069;27;20456;-81
2023/11/04 00:32:17;;;;;;;21.50;19.83;;;;;;;;;;5118656;28;20460;-81
2023/11/04 00:34:45;;;;;;;20.47;19.27;;;;;;;;;;5118261;28;20446;-80
2023/11/04 00:37:12;;;;;;;20.33;18.93;;;;;;;;;;5117977;28;20449;-82
2023/11/04 00:39:40;;;;;;;20.43;19.17;;;;;;;;;;5119389;28;20452;-80
2023/11/04 00:42:07;;;;;;;22.40;20.70;;;;;;;;;;5118716;28;20455;-79
2023/11/04 00:44:34;;;;;;;21.40;20.00;;;;;;;;;;5118767;28;20444;-79
2023/11/04 00:47:02;;;;;;;20.60;18.97;;;;;;;;;;5117843;28;20479;-81
2023/11/04 00:49:29;;;;;;;20.57;19.20;;;;;;;;;;5118800;28;20439;-81
2023/11/04 00:51:56;;;;;;;20.90;19.50;;;;;;;;;;5119288;27;20763;-81
2023/11/04 00:54:23;;;;;;;21.57;19.73;;;;;;;;;;5122982;27;20460;-81
2023/11/04 00:56:51;;;;;;;21.10;19.43;;;;;;;;;;5135179;27;20457;-80
2023/11/04 00:59:18;;;;;;;20.93;19.50;;;;;;;;;;5138170;27;20454;-80
2023/11/04 01:01:45;;;;;;;20.63;19.27;;;;;;;;;;5137700;27;20444;-81
2023/11/04 01:04:12;;;;;;;20.97;19.67;;;;;;;;;;5137802;27;20439;-80
2023/11/04 01:06:39;;;;;;;20.77;19.57;;;;;;;;;;5126335;27;20996;-81
2023/11/04 01:09:06;;;;;;;21.50;20.10;;;;;;;;;;5119106;28;20455;-81
2023/11/04 01:11:33;;;;;;;20.90;19.40;;;;;;;;;;5117741;28;20448;-80
2023/11/04 01:14:01;;;;;;;21.80;19.53;;;;;;;;;;5118094;28;20811;-81
2023/11/04 01:16:29;;;;;;;21.10;19.60;;;;;;;;;;5117481;28;20490;-80
2023/11/04 01:18:56;;;;;;;20.70;19.30;;;;;;;;;;5117755;28;20457;-79
2023/11/04 01:21:24;;;;;;;21.53;19.90;;;;;;;;;;5118638;28;20443;-80
2023/11/04 01:23:53;;;;;;;20.83;19.43;;;;;;;;;;5117458;28;20488;-81
2023/11/04 01:26:20;;;;;;;21.23;19.63;;;;;;;;;;5118510;28;20490;-79
2023/11/04 01:28:47;;;;;;;20.43;19.10;;;;;;;;;;5118006;28;20464;-80
2023/11/04 01:31:14;;;;;;;20.43;18.93;;;;;;;;;;5118678;28;20471;-80
2023/11/04 01:33:42;;;;;;;20.90;19.60;;;;;;;;;;5118681;28;20444;-80
2023/11/04 01:36:09;;;;;;;20.77;19.00;;;;;;;;;;5118498;28;20479;-81
2023/11/04 01:38:36;;;;;;;21.20;19.80;;;;;;;;;;5138671;28;20478;-81
2023/11/04 01:41:03;;;;;;;20.20;19.10;;;;;;;;;;5138461;28;20462;-80
2023/11/04 01:43:31;;;;;;;19.90;18.57;;;;;;;;;;5137907;28;20439;-79
2023/11/04 01:46:09;;;;;;;19.57;18.37;;;;;;;;;;5137450;28;20439;-81
2023/11/04 01:48:37;;;;;;;21.17;19.77;;;;;;;;;;5138143;27;20487;-80
2023/11/04 01:51:05;;;;;;;20.70;19.40;;;;;;;;;;5137403;28;20911;-79
2023/11/04 01:53:32;;;;;;;19.97;18.87;;;;;;;;;;5138264;28;20450;-80
2023/11/04 01:55:59;;;;;;;20.07;18.57;;;;;;;;;;5137123;28;20531;-81
2023/11/04 01:58:27;;;;;;;20.10;18.63;;;;;;;;;;5138275;28;20466;-82
2023/11/04 02:00:55;;;;;;;21.13;19.70;;;;;;;;;;5137842;28;20394;-81
2023/11/04 02:03:22;;;;;;;20.27;19.17;;;;;;;;;;5137713;28;20439;-80
2023/11/04 02:05:50;;;;;;;21.03;19.37;;;;;;;;;;5137088;28;20468;-80
2023/11/04 02:08:17;;;;;;;20.47;18.97;;;;;;;;;;5136615;28;20512;-81
2023/11/04 02:10:44;;;;;;;20.27;19.07;;;;;;;;;;5136768;28;20458;-80
2023/11/04 02:13:11;;;;;;;20.67;19.47;;;;;;;;;;5137056;28;20451;-81
2023/11/04 02:15:38;;;;;;;19.30;18.10;;;;;;;;;;5137034;28;20458;-81
2023/11/04 02:18:05;;;;;;;20.33;18.60;;;;;;;;;;5137382;28;20441;-81
2023/11/04 02:20:34;;;;;;;20.47;18.90;;;;;;;;;;5137317;28;20423;-81
2023/11/04 02:23:02;;;;;;;19.50;18.40;;;;;;;;;;5136770;28;20447;-79
2023/11/04 02:25:31;;;;;;;19.47;18.30;;;;;;;;;;5136521;28;20426;-80
2023/11/04 02:27:58;;;;;;;18.97;18.00;;;;;;;;;;5140020;27;20549;-82
2023/11/04 02:30:25;;;;;;;19.27;18.27;;;;;;;;;;5140593;27;20818;-81
2023/11/04 02:32:52;;;;;;;19.80;18.53;;;;;;;;;;5140108;27;20205;-80
2023/11/04 02:35:20;;;;;;;20.00;18.80;;;;;;;;;;5140553;27;20999;-78
2023/11/04 02:37:50;;;;;;;20.90;19.35;;;;;;;;;;5140984;27;20557;-81
2023/11/04 02:40:18;;;;;;;19.70;18.33;;;;;;;;;;5140535;27;20505;-82
2023/11/04 02:42:45;;;;;;;19.35;18.25;;;;;;;;;;5141078;27;20439;-79
2023/11/04 02:45:12;;;;;;;19.60;18.40;;;;;;;;;;5140271;27;20197;-80
2023/11/04 02:47:39;;;;;;;19.67;18.63;;;;;;;;;;5141104;27;21143;-81
2023/11/04 02:50:07;;;;;;;19.30;18.30;;;;;;;;;;5140972;27;20452;-79
2023/11/04 02:58:42;;;;;;;20.50;19.20;;;;;;;;;;5138546;27;20270;-81
2023/11/04 03:01:09;;;;;;;19.43;18.10;;;;;;;;;;5140477;27;20507;-81
2023/11/04 03:03:36;;;;;;;19.55;18.55;;;;;;;;;;5140222;27;20434;-81
2023/11/04 03:06:04;;;;;;;19.33;18.00;;;;;;;;;;5139677;27;20201;-81
2023/11/04 03:08:31;;;;;;;19.45;18.45;;;;;;;;;;5140311;27;20463;-80
2023/11/04 03:10:58;;;;;;;19.27;18.17;;;;;;;;;;5140249;27;20264;-80
2023/11/04 03:13:25;;;;;;;18.93;17.93;;;;;;;;;;5140538;27;20425;-79
2023/11/04 03:15:53;;;;;;;19.77;18.57;;;;;;;;;;5139595;27;20482;-81
2023/11/04 03:18:20;;;;;;;19.57;18.43;;;;;;;;;;5121550;27;20500;-79
2023/11/04 03:20:47;;;;;;;19.20;18.10;;;;;;;;;;5119687;28;20932;-81
2023/11/04 03:23:14;;;;;;;19.17;18.00;;;;;;;;;;5119168;27;20438;-80
2023/11/04 03:25:42;;;;;;;19.47;18.37;;;;;;;;;;5139789;27;20734;-81
2023/11/04 03:28:09;;;;;;;18.70;17.80;;;;;;;;;;5139806;27;20474;-79
2023/11/04 03:30:36;;;;;;;18.80;17.80;;;;;;;;;;5140470;27;20477;-81
2023/11/04 03:33:04;;;;;;;19.40;18.17;;;;;;;;;;5140572;27;20434;-80
2023/11/04 03:35:31;;;;;;;19.03;18.03;;;;;;;;;;5139177;27;20451;-80
2023/11/04 03:37:58;;;;;;;18.47;17.47;;;;;;;;;;5138768;27;20492;-80
2023/11/04 03:40:26;;;;;;;19.37;18.33;;;;;;;;;;5138646;27;20434;-80
2023/11/04 03:42:53;;;;;;;19.10;18.10;;;;;;;;;;5139071;27;20518;-80
2023/11/04 03:45:20;;;;;;;18.80;17.60;;;;;;;;;;5139080;27;20432;-80
2023/11/04 03:47:47;;;;;;;18.73;17.80;;;;;;;;;;5139970;27;20458;-81
2023/11/04 03:50:15;;;;;;;19.40;18.40;;;;;;;;;;5139175;27;20451;-79
2023/11/04 03:52:43;;;;;;;19.13;18.00;;;;;;;;;;5139462;27;20433;-80
2023/11/04 03:55:10;;;;;;;19.07;18.07;;;;;;;;;;5138809;27;20410;-80
2023/11/04 03:57:37;;;;;;;18.80;17.83;;;;;;;;;;5139671;27;20456;-79
2023/11/04 04:00:04;;;;;;;19.30;17.93;;;;;;;;;;5138920;27;20460;-81
2023/11/04 04:02:31;;;;;;;19.27;18.05;;;;;;;;;;5139624;27;20842;-79
2023/11/04 04:04:58;;;;;;;18.90;18.00;;;;;;;;;;5138523;27;20227;-80
2023/11/04 04:07:27;;;;;;;19.03;18.03;;;;;;;;;;5139061;27;20998;-80
2023/11/04 04:09:54;;;;;;;18.50;17.60;;;;;;;;;;5139132;27;20475;-79
2023/11/04 04:12:21;;;;;;;19.60;18.47;;;;;;;;;;5138882;27;20494;-80
2023/11/04 04:14:48;;;;;;;19.50;18.50;;;;;;;;;;5139215;27;20414;-80
2023/11/04 04:17:15;;;;;;;18.80;17.90;;;;;;;;;;5138911;27;20539;-80
2023/11/04 04:19:42;;;;;;;18.87;17.93;;;;;;;;;;5139442;27;20790;-81
2023/11/04 04:22:09;;;;;;;18.37;17.37;;;;;;;;;;5139423;27;20431;-81
2023/11/04 04:24:39;;;;;;;18.93;17.77;;;;;;;;;;5138795;27;20503;-79
2023/11/04 04:27:06;;;;;;;18.30;17.20;;;;;;;;;;5139451;27;20459;-80
2023/11/04 04:29:33;;;;;;;20.10;18.80;;;;;;;;;;5138830;27;20443;-80
2023/11/04 04:32:01;;;;;;;18.60;17.60;;;;;;;;;;5139574;27;20417;-81
2023/11/04 04:34:28;;;;;;;18.80;17.80;;;;;;;;;;5138499;27;20446;-79
2023/11/04 04:36:57;;;;;;;18.47;17.57;;;;;;;;;;5138863;27;20475;-80
2023/11/04 04:39:24;;;;;;;19.27;18.37;;;;;;;;;;5138884;27;20432;-80
2023/11/04 04:41:52;;;;;;;19.47;18.40;;;;;;;;;;5138652;27;20845;-79
2023/11/04 04:44:19;;;;;;;19.57;18.60;;;;;;;;;;5138795;27;20414;-80
2023/11/04 04:46:47;;;;;;;19.67;18.57;;;;;;;;;;5138795;27;20450;-79
2023/11/04 04:49:14;;;;;;;19.60;18.50;;;;;;;;;;5138433;27;20441;-81
2023/11/04 04:51:41;;;;;;;19.47;18.47;;;;;;;;;;5138261;27;20421;-80
2023/11/04 04:54:08;;;;;;;19.30;18.30;;;;;;;;;;5138022;27;20446;-81
2023/11/04 04:56:35;;;;;;;19.43;18.10;;;;;;;;;;5138319;27;20474;-80
2023/11/04 04:59:04;;;;;;;19.60;18.60;;;;;;;;;;5137868;27;20906;-79
2023/11/04 05:01:30;;;;;;;19.67;18.67;;;;;;;;;;5138393;27;20947;-79
2023/11/04 05:03:58;;;;;;;19.33;18.33;;;;;;;;;;5139519;27;20432;-81
2023/11/04 05:06:25;;;;;;;20.60;19.40;;;;;;;;;;5138352;27;20449;-82
2023/11/04 05:08:52;;;;;;;20.10;18.93;;;;;;;;;;5137729;27;20975;-82
2023/11/04 05:11:19;;;;;;;19.60;18.30;;;;;;;;;;5137123;27;20435;-82
2023/11/04 05:13:46;;;;;;;19.33;18.20;;;;;;;;;;5137112;27;20426;-83
2023/11/04 05:16:15;;;;;;;19.70;18.27;;;;;;;;;;5137135;27;20474;-81
2023/11/04 05:18:42;;;;;;;19.00;18.00;;;;;;;;;;5133386;27;20467;-83
2023/11/04 05:21:09;;;;;;;19.00;18.10;;;;;;;;;;5137195;27;20429;-82
2023/11/04 05:23:36;;;;;;;19.17;18.27;;;;;;;;;;5137433;27;20463;-81
2023/11/04 05:26:03;;;;;;;19.37;18.07;;;;;;;;;;5116633;28;20459;-81
2023/11/04 05:28:36;;;;;;;19.70;18.70;;;;;;;;;;5116762;28;20492;-81
2023/11/04 05:31:04;;;;;;;20.13;19.13;;;;;;;;;;5120153;28;20854;-83
2023/11/04 05:33:32;;;;;;;19.07;18.17;;;;;;;;;;5137393;28;20455;-81
2023/11/04 05:35:59;;;;;;;19.30;18.20;;;;;;;;;;5136849;28;20456;-83
2023/11/04 05:38:27;;;;;;;19.70;18.70;;;;;;;;;;5138702;28;21256;-84
2023/11/04 05:40:54;;;;;;;19.40;18.40;;;;;;;;;;5138494;27;20479;-82
2023/11/04 05:43:21;;;;;;;19.50;18.50;;;;;;;;;;5138238;28;20466;-83
2023/11/04 05:45:49;;;;;;;19.40;18.50;;;;;;;;;;5138560;28;20421;-81
2023/11/04 05:48:19;;;;;;;20.30;19.17;;;;;;;;;;5138513;28;20467;-83
2023/11/04 05:50:47;;;;;;;19.70;18.60;;;;;;;;;;5138000;28;20864;-81
2023/11/04 05:53:14;;;;;;;20.20;18.57;;;;;;;;;;5138385;28;20843;-81
2023/11/04 05:55:42;;;;;;;19.83;18.73;;;;;;;;;;5138699;28;20466;-82
2023/11/04 05:58:09;;;;;;;19.53;18.47;;;;;;;;;;5138612;28;20479;-83
2023/11/04 06:00:37;;;;;;;19.37;18.47;;;;;;;;;;5139257;27;20422;-82
2023/11/04 06:03:04;;;;;;;19.53;18.50;;;;;;;;;;5141818;27;20470;-81
2023/11/04 06:05:33;;;;;;;20.07;19.07;;;;;;;;;;5142664;27;20414;-82
2023/11/04 06:08:02;;;;;;;20.00;19.00;;;;;;;;;;5143148;27;20867;-83
2023/11/04 06:10:29;;;;;;;19.90;18.60;;;;;;;;;;5143582;27;20846;-82
2023/11/04 06:12:56;;;;;;;19.13;18.13;;;;;;;;;;5143164;27;20905;-83
2023/11/04 06:15:24;;;;;;;19.13;18.20;;;;;;;;;;5142237;27;20442;-83
2023/11/04 06:17:51;;;;;;;18.73;17.83;;;;;;;;;;5142655;27;20522;-81
2023/11/04 06:20:19;;;;;;;19.37;18.37;;;;;;;;;;5142644;27;20446;-82
2023/11/04 06:22:46;;;;;;;18.73;17.83;;;;;;;;;;5142075;27;20447;-81
2023/11/04 06:25:14;;;;;;;19.10;18.00;;;;;;;;;;5142455;27;20495;-83
2023/11/04 06:27:41;;;;;;;18.93;17.93;;;;;;;;;;5141928;27;20470;-81
2023/11/04 06:30:10;;;;;;;19.20;18.20;;;;;;;;;;5141974;27;20429;-82
2023/11/04 06:32:37;;;;;;;18.90;17.90;;;;;;;;;;5142002;27;20455;-79
2023/11/04 06:35:05;;;;;;;19.57;18.33;;;;;;;;;;5142223;27;20421;-81
2023/11/04 06:37:32;;;;;;;18.63;17.63;;;;;;;;;;5142216;27;20461;-82
2023/11/04 06:39:59;;;;;;;19.27;18.27;;;;;;;;;;5142181;27;20424;-82
2023/11/04 06:42:27;;;;;;;19.50;18.50;;;;;;;;;;5141825;27;20443;-82
2023/11/04 06:44:55;;;;;;;18.80;17.80;;;;;;;;;;5141793;27;20443;-81
2023/11/04 06:47:23;;;;;;;19.80;18.60;;;;;;;;;;5141890;27;20467;-82
2023/11/04 06:49:50;;;;;;;19.30;18.30;;;;;;;;;;5141589;27;20446;-83
2023/11/04 06:52:17;;;;;;;19.53;18.43;;;;;;;;;;5141789;27;20447;-82
2023/11/04 06:54:44;;;;;;;20.27;18.97;;;;;;;;;;5141359;27;20422;-83
2023/11/04 06:57:11;;;;;;;19.73;18.73;;;;;;;;;;5141299;27;20494;-81
2023/11/04 06:59:41;;;;;;;19.70;18.50;;;;;;;;;;5140340;27;20481;-83
2023/11/04 07:02:08;;;;;;;19.20;18.20;;;;;;;;;;5140768;27;20466;-79
2023/11/04 07:04:36;;;;;;;19.93;18.93;;;;;;;;;;5141168;27;20447;-79
2023/11/04 07:07:03;;;;;;;20.07;18.77;;;;;;;;;;5142041;27;20441;-80
2023/11/04 07:09:33;;;;;;;19.80;18.70;;;;;;;;;;5140987;27;21170;-82
2023/11/04 07:12:00;;;;;;;19.67;18.47;;;;;;;;;;5140850;27;20451;-81
2023/11/04 07:14:27;;;;;;;19.30;18.30;;;;;;;;;;5141069;27;20442;-81
2023/11/04 07:16:56;;;;;;;19.30;18.00;;;;;;;;;;5142102;27;20453;-81
2023/11/04 07:19:23;;;;;;;19.57;18.30;;;;;;;;;;5121176;28;21067;-81
2023/11/04 07:21:50;;;;;;;18.97;17.97;;;;;;;;;;5121012;28;20447;-84
2023/11/04 07:24:18;;;;;;;19.57;18.27;;;;;;;;;;5120087;28;20536;-83
2023/11/04 07:26:46;;;;;;;19.30;18.20;;;;;;;;;;5119404;28;20840;-82
2023/11/04 07:29:13;;;;;;;19.07;18.07;;;;;;;;;;5120538;28;20459;-81
2023/11/04 07:31:40;;;;;;;19.10;18.10;;;;;;;;;;5120393;28;20426;-80
2023/11/04 07:34:09;;;;;;;18.90;17.80;;;;;;;;;;5120410;28;20422;-84
2023/11/04 07:36:36;;;;;;;19.10;18.00;;;;;;;;;;5118373;28;20455;-81
2023/11/04 07:39:03;;;;;;;19.17;18.17;;;;;;;;;;5118612;28;21097;-82
2023/11/04 07:41:30;;;;;;;19.30;18.20;;;;;;;;;;5120115;28;20452;-79
2023/11/04 07:43:58;;;;;;;19.50;18.30;;;;;;;;;;5119410;28;20423;-79
2023/11/04 07:46:26;;;;;;;18.97;17.87;;;;;;;;;;5120661;28;20437;-81
2023/11/04 07:48:53;;;;;;;19.60;18.60;;;;;;;;;;5120772;28;20900;-82
2023/11/04 07:51:22;;;;;;;19.20;18.20;;;;;;;;;;5125637;27;20444;-82
2023/11/04 07:53:49;;;;;;;19.47;18.47;;;;;;;;;;5140054;27;20460;-80
2023/11/04 07:56:16;;;;;;;20.40;19.20;;;;;;;;;;5140689;27;20439;-80
2023/11/04 07:58:43;;;;;;;19.40;18.27;;;;;;;;;;5140001;27;20457;-81
2023/11/04 08:01:10;;;;;;;19.87;18.60;;;;;;;;;;5140621;27;20433;-80
2023/11/04 08:03:37;;;;;;;20.00;18.90;;;;;;;;;;5133467;27;20489;-81
2023/11/04 08:06:04;;;;;;;19.97;18.87;;;;;;;;;;5129372;27;20429;-80
2023/11/04 08:08:33;;;;;;;20.00;18.90;;;;;;;;;;5120528;27;20496;-81
2023/11/04 08:11:00;;;;;;;20.00;18.90;;;;;;;;;;5120312;28;20411;-81
2023/11/04 08:13:27;;;;;;;20.00;18.90;;;;;;;;;;5140536;27;20418;-81
2023/11/04 08:15:54;;;;;;;19.70;18.60;;;;;;;;;;5139755;27;20443;-81
2023/11/04 08:18:22;;;;;;;19.70;18.60;;;;;;;;;;5140072;27;20989;-79
2023/11/04 08:20:49;;;;;;;20.40;19.30;;;;;;;;;;5139514;27;20852;-81
2023/11/04 08:23:16;;;;;;;19.80;18.50;;;;;;;;;;5140038;27;20535;-80
2023/11/04 08:25:45;;;;;;;19.20;18.13;;;;;;;;;;5139197;27;20440;-82
2023/11/04 08:28:12;;;;;;;19.60;18.43;;;;;;;;;;5140213;27;20562;-82
2023/11/04 08:30:39;;;;;;;19.33;18.20;;;;;;;;;;5140642;27;20491;-81
2023/11/04 08:33:06;;;;;;;19.40;18.30;;;;;;;;;;5139622;27;20451;-78
2023/11/04 08:35:33;;;;;;;19.30;18.10;;;;;;;;;;5133989;27;20489;-80
2023/11/04 08:38:01;;;;;;;19.07;18.07;;;;;;;;;;5119434;28;20484;-82
2023/11/04 08:40:28;;;;;;;19.47;18.43;;;;;;;;;;5127122;27;20762;-83
2023/11/04 08:42:56;;;;;;;19.60;18.60;;;;;;;;;;5136331;27;20425;-81
2023/11/04 08:45:24;;;;;;;19.07;18.07;;;;;;;;;;5134498;27;20418;-80
2023/11/04 08:47:51;;;;;;;19.83;18.47;;;;;;;;;;5138902;27;20474;-80
2023/11/04 08:50:18;;;;;;;19.80;18.70;;;;;;;;;;5139898;27;20406;-80
2023/11/04 08:52:45;;;;;;;20.33;19.20;;;;;;;;;;5131379;27;20956;-81
2023/11/04 08:55:12;;;;;;;19.50;18.50;;;;;;;;;;5138912;27;20451;-80
2023/11/04 08:57:39;;;;;;;19.90;18.90;;;;;;;;;;5138797;27;20573;-80
2023/11/04 09:00:11;;;;;;;19.27;18.27;;;;;;;;;;5137676;27;20421;-82
2023/11/04 09:02:38;;;;;;;19.87;18.87;;;;;;;;;;5117684;27;20463;-80
2023/11/04 09:05:08;;;;;;;19.80;18.80;;;;;;;;;;5128759;27;20430;-81
2023/11/04 09:07:35;;;;;;;19.53;18.53;;;;;;;;;;5127121;27;20463;-81
2023/11/04 09:10:03;;;;;;;19.43;18.40;;;;;;;;;;5139894;27;20443;-82
2023/11/04 09:12:30;;;;;;;20.80;19.60;;;;;;;;;;5139209;27;20442;-81
2023/11/04 09:14:57;;;;;;;20.53;19.53;;;;;;;;;;5121699;27;20481;-82
2023/11/04 09:17:25;;;;;;;20.43;19.33;;;;;;;;;;5119430;28;20434;-81
2023/11/04 09:19:52;;;;;;;20.60;19.47;;;;;;;;;;5119067;28;21237;-80
2023/11/04 09:22:20;;;;;;;19.30;18.30;;;;;;;;;;5118510;28;20459;-82
2023/11/04 09:24:48;;;;;;;21.30;20.17;;;;;;;;;;5130953;27;20443;-81
2023/11/04 09:27:15;;;;;;;20.60;19.47;;;;;;;;;;5139610;27;20522;-81
2023/11/04 09:29:42;;;;;;;20.40;19.40;;;;;;;;;;5139155;27;20458;-80
2023/11/04 09:32:11;;;;;;;20.50;19.40;;;;;;;;;;5141114;28;20482;-81
2023/11/04 09:34:39;;;;;;;20.00;19.07;;;;;;;;;;5141722;28;20432;-80
2023/11/04 09:37:06;;;;;;;19.80;18.80;;;;;;;;;;5142382;27;20486;-83
2023/11/04 09:39:34;;;;;;;20.13;19.03;;;;;;;;;;5144525;27;20998;-82
2023/11/04 09:42:01;;;;;;;20.20;19.10;;;;;;;;;;5144619;27;20451;-80
2023/11/04 09:44:28;;;;;;;19.90;18.90;;;;;;;;;;5144505;27;20783;-79
2023/11/04 09:46:55;;;;;;;20.73;19.73;;;;;;;;;;5143163;27;20446;-80
2023/11/04 09:49:22;;;;;;;20.93;19.73;;;;;;;;;;5143930;27;20459;-81
2023/11/04 09:51:50;;;;;;;20.67;19.47;;;;;;;;;;5144439;27;20443;-80
2023/11/04 09:54:18;;;;;;;21.10;19.70;;;;;;;;;;5144812;27;20454;-79
2023/11/04 09:56:45;;;;;;;21.70;20.20;;;;;;;;;;5145086;27;20451;-80
2023/11/04 09:59:12;;;;;;;21.03;19.87;;;;;;;;;;5145094;27;20489;-79
2023/11/04 10:01:40;;;;;;;20.33;19.10;;;;;;;;;;5144655;27;20447;-80
2023/11/04 10:04:07;;;;;;;20.47;19.37;;;;;;;;;;5136303;27;20875;-80
2023/11/04 10:06:34;;;;;;;20.53;19.43;;;;;;;;;;5124165;28;20787;-80
2023/11/04 10:09:02;;;;;;;20.00;18.80;;;;;;;;;;5123893;28;20415;-79
2023/11/04 10:11:32;;;;;;;21.37;20.17;;;;;;;;;;5124293;28;20516;-80
2023/11/04 10:13:59;;;;;;;20.40;19.30;;;;;;;;;;5123075;28;20454;-81
2023/11/04 10:16:28;;;;;;;20.30;19.10;;;;;;;;;;5122884;28;21280;-80
2023/11/04 10:18:56;;;;;;;19.77;18.67;;;;;;;;;;5132002;27;20497;-80
2023/11/04 10:21:23;;;;;;;20.57;19.57;;;;;;;;;;5144409;27;20435;-80
2023/11/04 10:23:50;;;;;;;20.23;19.23;;;;;;;;;;5143741;27;20454;-80
2023/11/04 10:26:20;;;;;;;19.93;18.93;;;;;;;;;;5144115;27;21014;-81
2023/11/04 10:28:47;;;;;;;19.63;18.37;;;;;;;;;;5139621;27;20466;-81
2023/11/04 10:31:17;;;;;;;19.60;18.50;;;;;;;;;;5129439;27;20455;-80
2023/11/04 10:33:45;;;;;;;20.37;19.17;;;;;;;;;;5130283;27;20456;-81
2023/11/04 10:36:12;;;;;;;20.90;19.80;;;;;;;;;;5126809;27;20433;-81
2023/11/04 10:38:42;;;;;;;21.00;19.80;;;;;;;;;;5123794;28;20487;-80
2023/11/04 10:41:10;;;;;;;19.43;18.33;;;;;;;;;;5124408;28;20427;-81
2023/11/04 10:43:42;;;;;;;19.50;18.40;;;;;;;;;;5140109;27;20437;-81
2023/11/04 10:46:11;;;;;;;19.53;18.40;;;;;;;;;;5122173;28;20428;-81
2023/11/04 10:48:41;;;;;;;22.00;20.60;;;;;;;;;;5121279;28;20475;-81
2023/11/04 10:51:12;;;;;;;162.77;65.97;;;;;;;;;;5122674;28;20395;-80
2023/11/04 10:53:42;;;;;;;21.30;20.00;;;;;;;;;;5122368;28;20420;-80
2023/11/04 10:56:12;;;;;;;23.43;21.90;;;;;;;;;;5121780;28;20440;-81
2023/11/04 10:58:43;;;;;;;19.87;18.73;;;;;;;;;;5127744;27;20612;-81
2023/11/04 11:01:12;;;;;;;22.03;20.73;;;;;;;;;;5132606;27;20440;-80
2023/11/04 11:03:39;;;;;;;20.00;18.90;;;;;;;;;;5130481;27;20514;-81
2023/11/04 11:06:06;;;;;;;19.80;18.80;;;;;;;;;;5122933;28;20423;-81
2023/11/04 11:08:34;;;;;;;20.70;19.50;;;;;;;;;;5122927;28;20452;-82
2023/11/04 11:11:05;;;;;;;20.40;19.20;;;;;;;;;;5132942;27;20423;-82
2023/11/04 11:13:35;;;;;;;20.30;19.00;;;;;;;;;;5139091;27;20471;-77
2023/11/04 11:16:04;;;;;;;22.30;20.90;;;;;;;;;;5143101;27;20446;-79
2023/11/04 11:18:30;;;;;;;21.23;20.13;;;;;;;;;;5141144;27;21044;-81
2023/11/04 11:21:08;;;;;;;19.90;18.80;;;;;;;;;;5136919;27;20493;-81
2023/11/04 11:23:35;;;;;;;20.00;18.90;;;;;;;;;;5127058;27;20446;-81
2023/11/04 11:26:05;;;;;;;20.70;19.50;;;;;;;;;;5120235;27;20441;-93
2023/11/04 11:28:37;;;;;;;21.07;19.97;;;;;;;;;;5124877;27;20472;-85
2023/11/04 11:31:07;;;;;;;20.33;19.13;;;;;;;;;;5127187;27;20563;-82
2023/11/04 11:33:34;;;;;;;20.20;19.10;;;;;;;;;;5132935;27;20455;-83
2023/11/04 11:36:06;;;;;;;19.90;18.60;;;;;;;;;;5129409;27;21248;-83
2023/11/04 11:38:34;;;;;;;19.67;18.63;;;;;;;;;;5135757;27;20454;-84
2023/11/04 11:41:05;;;;;;;19.70;18.70;;;;;;;;;;5122802;28;20455;-81
2023/11/04 11:43:32;;;;;;;20.10;19.00;;;;;;;;;;5122066;28;20458;-84
2023/11/04 11:45:59;;;;;;;20.23;19.03;;;;;;;;;;5131913;27;20443;-84
2023/11/04 11:48:29;;;;;;;20.10;18.90;;;;;;;;;;5132491;27;21302;-84
2023/11/04 11:50:56;;;;;;;20.10;19.00;;;;;;;;;;5121421;28;20452;-83
2023/11/04 11:53:23;;;;;;;19.93;18.83;;;;;;;;;;5123077;28;20423;-84
2023/11/04 11:56:00;;;;;;;20.27;19.07;;;;;;;;;;5122568;28;20451;-83
2023/11/04 11:58:27;;;;;;;20.13;19.03;;;;;;;;;;5128705;27;20985;-85
2023/11/04 12:00:55;;;;;;;20.43;19.17;;;;;;;;;;5142320;27;20454;-84
2023/11/04 12:03:23;;;;;;;20.90;19.60;;;;;;;;;;5141975;27;20490;-84
2023/11/04 12:05:53;;;;;;;20.83;19.53;;;;;;;;;;5141287;27;20451;-86
2023/11/04 12:08:20;;;;;;;20.90;19.70;;;;;;;;;;5126265;27;20495;-79
2023/11/04 12:10:47;;;;;;;19.83;18.73;;;;;;;;;;5117831;28;20428;-78
2023/11/04 12:13:14;;;;;;;20.03;18.93;;;;;;;;;;5118294;28;20496;-80
2023/11/04 12:15:44;;;;;;;19.00;18.00;;;;;;;;;;5116116;28;20419;-79
2023/11/04 12:18:11;;;;;;;20.43;19.33;;;;;;;;;;5116367;28;20512;-81
2023/11/04 12:20:40;;;;;;;20.10;19.10;;;;;;;;;;5121146;27;20459;-89
2023/11/04 12:23:11;;;;;;;19.60;18.60;;;;;;;;;;5124629;27;20526;-89
2023/11/04 12:25:38;;;;;;;19.93;18.83;;;;;;;;;;5138525;27;20441;-89
2023/11/04 12:28:06;;;;;;;19.23;18.23;;;;;;;;;;5138932;27;20433;-89
2023/11/04 12:30:33;;;;;;;20.40;19.20;;;;;;;;;;5139476;27;20439;-90
2023/11/04 12:33:01;;;;;;;26.60;24.73;;;;;;;;;;5139623;27;20451;-89
2023/11/04 12:35:29;;;;;;;20.10;18.97;;;;;;;;;;5139581;27;20425;-89
2023/11/04 12:37:58;;;;;;;23.03;21.43;;;;;;;;;;5139948;27;20430;-89
2023/11/04 12:40:28;;;;;;;20.27;19.10;;;;;;;;;;5139235;27;20459;-89
2023/11/04 12:42:56;;;;;;;22.17;20.87;;;;;;;;;;5138297;27;20407;-89
2023/11/04 12:45:23;;;;;;;20.83;19.73;;;;;;;;;;5136637;27;20441;-90
2023/11/04 12:47:51;;;;;;;20.03;18.93;;;;;;;;;;5137637;27;20450;-90
2023/11/04 12:50:19;;;;;;;20.17;19.07;;;;;;;;;;5119593;27;20421;-86
2023/11/04 12:52:47;;;;;;;19.37;18.30;;;;;;;;;;5140503;27;20520;-81
2023/11/04 12:55:17;;;;;;;19.57;18.57;;;;;;;;;;5137880;27;20534;-89
2023/11/04 12:57:45;;;;;;;19.13;18.00;;;;;;;;;;5137514;27;20512;-89
2023/11/04 13:00:13;;;;;;;20.03;18.97;;;;;;;;;;5120914;27;21210;-89
2023/11/04 13:02:41;;;;;;;19.90;18.80;;;;;;;;;;5114364;28;20546;-91
2023/11/04 13:05:08;;;;;;;21.23;19.93;;;;;;;;;;5113267;27;20423;-89
2023/11/04 13:07:36;;;;;;;19.60;18.50;;;;;;;;;;5113928;28;20522;-88
2023/11/04 13:10:05;;;;;;;22.40;20.37;;;;;;;;;;5120281;27;20551;-89
2023/11/04 13:12:32;;;;;;;19.60;18.47;;;;;;;;;;5116573;27;20434;-89
2023/11/04 13:15:00;;;;;;;24.70;23.00;;;;;;;;;;5121402;27;20871;-89
2023/11/04 13:17:27;;;;;;;20.00;18.80;;;;;;;;;;5115681;28;20431;-83
2023/11/04 13:19:54;;;;;;;26.27;24.37;;;;;;;;;;5116080;28;20502;-86
2023/11/04 13:22:22;;;;;;;21.20;19.90;;;;;;;;;;5120671;28;20446;-85
2023/11/04 13:24:49;;;;;;;21.07;19.90;;;;;;;;;;5118967;28;20941;-87
2023/11/04 13:27:16;;;;;;;20.73;19.50;;;;;;;;;;5118710;28;20446;-87
2023/11/04 13:29:43;;;;;;;20.50;19.30;;;;;;;;;;5118356;28;20501;-86
2023/11/04 13:32:11;;;;;;;21.63;19.87;;;;;;;;;;5118957;28;20432;-87
2023/11/04 13:34:38;;;;;;;21.83;20.23;;;;;;;;;;5118022;28;20411;-86
2023/11/04 13:37:06;;;;;;;20.97;19.77;;;;;;;;;;5118933;28;20450;-86
2023/11/04 13:39:33;;;;;;;20.27;19.07;;;;;;;;;;5118941;28;20498;-86
2023/11/04 13:42:00;;;;;;;20.10;19.00;;;;;;;;;;5121073;28;20546;-84
2023/11/04 13:44:27;;;;;;;20.37;18.97;;;;;;;;;;5120220;28;20452;-86
2023/11/04 13:46:54;;;;;;;20.43;19.23;;;;;;;;;;5119415;28;20464;-87
2023/11/04 13:49:22;;;;;;;20.07;18.80;;;;;;;;;;5119189;28;20418;-86
2023/11/04 13:51:49;;;;;;;20.53;19.43;;;;;;;;;;5119990;28;20417;-86
2023/11/04 13:54:16;;;;;;;20.10;19.00;;;;;;;;;;5119675;28;20452;-86
2023/11/04 13:56:43;;;;;;;19.37;18.33;;;;;;;;;;5119950;28;20452;-87
2023/11/04 13:59:10;;;;;;;20.07;19.07;;;;;;;;;;5119068;28;20629;-87
2023/11/04 14:01:37;;;;;;;20.97;19.53;;;;;;;;;;5119256;28;20516;-85
2023/11/04 14:04:05;;;;;;;21.20;19.63;;;;;;;;;;5118126;28;20448;-87
2023/11/04 14:06:33;;;;;;;21.10;20.00;;;;;;;;;;5119486;28;20461;-87
2023/11/04 14:09:00;;;;;;;20.97;19.70;;;;;;;;;;5119962;28;20524;-87
2023/11/04 14:11:28;;;;;;;20.67;19.47;;;;;;;;;;5119699;28;20428;-85
2023/11/04 14:13:55;;;;;;;20.93;19.73;;;;;;;;;;5118642;28;20459;-86
2023/11/04 14:16:22;;;;;;;20.60;19.40;;;;;;;;;;5119146;28;20455;-86
2023/11/04 14:18:49;;;;;;;20.60;19.50;;;;;;;;;;5119709;28;20456;-86
2023/11/04 14:21:16;;;;;;;20.10;18.90;;;;;;;;;;5118922;28;20451;-87
2023/11/04 14:23:44;;;;;;;20.30;19.20;;;;;;;;;;5121251;28;20424;-87